createdAt,value
2023-02-08T00:00:28.885Z,53.72
2023-02-08T00:02:55.546Z,54.78
2023-02-08T00:05:22.225Z,54.19
2023-02-08T00:07:48.788Z,54.15
2023-02-08T00:10:15.338Z,55.74
2023-02-08T00:12:41.986Z,53.57
2023-02-08T00:15:09.034Z,54.08
2023-02-08T00:17:35.628Z,54.40
2023-02-08T00:20:02.168Z,54.86
2023-02-08T00:22:28.844Z,55.54
2023-02-08T00:24:55.426Z,55.11
2023-02-08T00:27:22.102Z,55.17
2023-02-08T00:29:48.993Z,55.27
2023-02-08T00:32:15.619Z,55.19
2023-02-08T00:34:42.206Z,55.71
2023-02-08T00:37:09.336Z,54.77
2023-02-08T00:39:35.877Z,55.42
2023-02-08T00:42:02.571Z,54.52
2023-02-08T00:44:29.321Z,55.27
2023-02-08T00:46:56.349Z,55.92
2023-02-08T00:49:23.069Z,55.42
2023-02-08T00:51:49.835Z,54.95
2023-02-08T00:54:18.365Z,54.50
2023-02-08T00:56:45.724Z,54.87
2023-02-08T00:59:12.527Z,56.11
2023-02-08T01:01:40.428Z,55.45
2023-02-08T01:04:07.529Z,55.14
2023-02-08T01:06:34.138Z,54.89
2023-02-08T01:09:00.699Z,54.82
2023-02-08T01:11:27.403Z,54.92
2023-02-08T01:13:57.383Z,54.31
2023-02-08T01:21:13.526Z,55.79
2023-02-08T01:23:41.574Z,55.99
2023-02-08T01:26:10.025Z,56.35
2023-02-08T01:28:38.406Z,56.28
2023-02-08T01:31:10.286Z,55.41
2023-02-08T01:33:37.749Z,53.97
2023-02-08T01:36:04.815Z,54.33
2023-02-08T01:38:32.450Z,53.27
2023-02-08T01:40:59.374Z,53.08
2023-02-08T01:43:29.203Z,54.62
2023-02-08T01:45:56.004Z,54.05
2023-02-08T01:48:27.551Z,53.98
2023-02-08T01:51:21.919Z,53.96
2023-02-08T01:53:50.585Z,54.60
2023-02-08T01:56:23.241Z,55.18
2023-02-08T01:58:53.256Z,54.95
2023-02-08T02:01:20.104Z,54.22
2023-02-08T02:03:47.029Z,54.26
2023-02-08T02:06:21.311Z,53.93
2023-02-08T02:08:56.229Z,54.12
2023-02-08T02:11:23.136Z,54.09
2023-02-08T02:13:53.969Z,54.63
2023-02-08T02:16:21.180Z,54.65
2023-02-08T02:18:47.844Z,55.26
2023-02-08T02:21:40.125Z,54.79
2023-02-08T02:24:11.352Z,54.90
2023-02-08T02:27:03.064Z,55.58
2023-02-08T02:29:35.421Z,56.06
2023-02-08T02:32:39.401Z,55.61
2023-02-08T02:35:36.402Z,54.69
2023-02-08T02:38:19.774Z,55.81
2023-02-08T02:41:42.607Z,55.15
2023-02-08T02:44:40.757Z,54.81
2023-02-08T02:47:26.397Z,55.50
2023-02-08T02:49:56.991Z,55.42
2023-02-08T02:52:39.615Z,55.01
2023-02-08T02:55:10.503Z,55.65
2023-02-08T02:57:37.961Z,56.92
2023-02-08T03:00:10.386Z,55.95
2023-02-08T03:02:37.346Z,56.22
2023-02-08T03:05:06.949Z,55.09
2023-02-08T03:07:41.749Z,56.83
2023-02-08T03:10:35.185Z,56.97
2023-02-08T03:13:04.938Z,55.49
2023-02-08T03:16:01.986Z,56.22
2023-02-08T03:18:56.520Z,56.52
2023-02-08T03:21:50.880Z,55.87
2023-02-08T03:24:40.158Z,55.05
2023-02-08T03:27:17.594Z,55.75
2023-02-08T03:29:58.058Z,55.98
2023-02-08T03:32:47.943Z,55.89
2023-02-08T03:35:21.229Z,55.04
2023-02-08T03:37:59.980Z,55.11
2023-02-08T03:40:35.527Z,55.46
2023-02-08T03:43:09.110Z,54.67
2023-02-08T03:45:42.007Z,55.26
2023-02-08T03:48:11.366Z,54.90
2023-02-08T03:50:40.749Z,56.14
2023-02-08T03:53:09.243Z,56.27
2023-02-08T03:55:38.810Z,55.52
2023-02-08T03:58:08.163Z,55.04
2023-02-08T04:00:40.512Z,54.96
2023-02-08T04:03:21.300Z,54.90
2023-02-08T04:05:48.224Z,56.16
2023-02-08T04:08:14.702Z,56.68
2023-02-08T04:10:41.486Z,56.25
2023-02-08T04:13:08.399Z,56.05
2023-02-08T04:15:35.011Z,56.21
2023-02-08T04:18:01.595Z,55.80
2023-02-08T04:20:28.137Z,55.10
2023-02-08T04:22:54.693Z,55.70
2023-02-08T04:25:21.811Z,55.19
2023-02-08T04:27:48.381Z,54.94
2023-02-08T04:30:15.044Z,55.82
2023-02-08T04:32:41.599Z,55.61
2023-02-08T04:35:08.326Z,55.54
2023-02-08T04:37:34.990Z,55.82
2023-02-08T04:40:01.739Z,55.66
2023-02-08T04:42:28.323Z,56.45
2023-02-08T04:44:54.941Z,55.07
2023-02-08T04:47:21.739Z,56.17
2023-02-08T04:49:48.353Z,55.95
2023-02-08T04:52:14.901Z,55.63
2023-02-08T04:54:41.558Z,55.07
2023-02-08T04:57:12.167Z,56.30
2023-02-08T04:59:38.729Z,56.66
2023-02-08T05:02:05.334Z,57.46
2023-02-08T05:04:32.861Z,57.84
2023-02-08T05:06:59.396Z,58.66
2023-02-08T05:09:26.272Z,58.05
2023-02-08T05:16:24.186Z,56.96
2023-02-08T05:18:51.500Z,57.60
2023-02-08T05:21:18.002Z,55.99
2023-02-08T05:23:46.622Z,57.66
2023-02-08T05:26:13.640Z,56.25
2023-02-08T05:28:40.540Z,56.83
2023-02-08T05:31:22.813Z,57.91
2023-02-08T05:33:50.665Z,58.42
2023-02-08T05:36:19.382Z,57.36
2023-02-08T05:38:46.085Z,58.76
2023-02-08T05:42:15.366Z,58.12
2023-02-08T05:44:42.273Z,57.76
2023-02-08T05:47:09.006Z,57.42
2023-02-08T05:49:35.695Z,57.13
2023-02-08T05:52:02.337Z,57.76
2023-02-08T05:54:28.897Z,58.00
2023-02-08T05:56:55.410Z,56.02
2023-02-08T05:59:22.142Z,56.15
2023-02-08T06:01:49.492Z,56.84
2023-02-08T06:04:16.106Z,58.29
2023-02-08T06:06:42.916Z,58.19
2023-02-08T06:09:09.659Z,57.06
2023-02-08T06:11:36.177Z,57.70
2023-02-08T06:14:03.327Z,57.41
2023-02-08T06:16:29.948Z,57.26
2023-02-08T06:18:56.654Z,56.74
2023-02-08T06:21:24.558Z,56.94
2023-02-08T06:23:51.296Z,56.59
2023-02-08T06:26:17.909Z,56.40
2023-02-08T06:28:44.517Z,56.88
2023-02-08T06:31:11.002Z,56.27
2023-02-08T06:33:37.646Z,56.08
2023-02-08T06:36:04.541Z,56.04
2023-02-08T06:38:31.365Z,55.65
2023-02-08T06:40:58.137Z,56.92
2023-02-08T06:43:25.691Z,56.48
2023-02-08T06:45:52.600Z,55.80
2023-02-08T06:48:19.197Z,56.87
2023-02-08T06:50:45.846Z,56.32
2023-02-08T06:53:12.495Z,56.36
2023-02-08T06:55:39.471Z,56.23
2023-02-08T06:58:06.013Z,56.91
2023-02-08T07:00:32.863Z,56.92
2023-02-08T07:03:00.809Z,56.08
2023-02-08T07:05:27.617Z,55.54
2023-02-08T07:07:54.340Z,55.51
2023-02-08T07:10:20.896Z,54.92
2023-02-08T07:12:47.470Z,54.48
2023-02-08T07:15:14.054Z,55.31
2023-02-08T07:17:40.749Z,54.30
2023-02-08T07:20:08.550Z,54.70
2023-02-08T07:22:35.205Z,54.20
2023-02-08T07:25:01.816Z,53.95
2023-02-08T07:27:28.511Z,54.67
2023-02-08T07:29:55.168Z,53.49
2023-02-08T07:32:22.196Z,54.05
2023-02-08T07:34:48.858Z,53.82
2023-02-08T07:37:15.525Z,53.79
2023-02-08T07:39:42.233Z,54.17
2023-02-08T07:42:10.108Z,54.51
2023-02-08T07:44:48.367Z,54.35
2023-02-08T07:47:14.946Z,53.93
2023-02-08T07:49:41.667Z,52.99
2023-02-08T07:52:08.192Z,52.47
2023-02-08T07:54:35.005Z,53.86
2023-02-08T07:57:03.465Z,53.87
2023-02-08T07:59:30.590Z,53.63
2023-02-08T08:01:57.139Z,53.92
2023-02-08T08:04:24.073Z,53.66
2023-02-08T08:06:51.438Z,53.62
2023-02-08T08:09:18.013Z,53.61
2023-02-08T08:11:44.500Z,53.82
2023-02-08T08:14:11.006Z,53.56
2023-02-08T08:16:37.714Z,53.22
2023-02-08T08:19:04.576Z,53.10
2023-02-08T08:21:31.088Z,53.30
2023-02-08T08:23:57.664Z,53.42
2023-02-08T08:26:24.266Z,53.48
2023-02-08T08:28:51.048Z,53.92
2023-02-08T08:31:20.924Z,53.07
2023-02-08T08:33:48.342Z,52.35
2023-02-08T08:36:15.073Z,51.91
2023-02-08T08:38:41.791Z,51.64
2023-02-08T08:41:14.774Z,51.54
2023-02-08T08:43:41.549Z,50.38
2023-02-08T08:46:08.651Z,49.86
2023-02-08T08:48:36.484Z,49.36
2023-02-08T08:51:03.378Z,49.69
2023-02-08T08:53:30.814Z,48.88
2023-02-08T08:55:57.628Z,49.16
2023-02-08T08:58:24.231Z,49.13
2023-02-08T09:00:50.994Z,49.20
2023-02-08T09:03:17.704Z,49.09
2023-02-08T09:05:44.236Z,49.17
2023-02-08T09:08:11.018Z,49.24
2023-02-08T09:10:37.544Z,49.56
2023-02-08T09:13:04.199Z,50.17
2023-02-08T09:15:30.869Z,50.89
2023-02-08T09:17:57.440Z,51.17
2023-02-08T09:20:24.078Z,50.87
2023-02-08T09:22:50.832Z,51.06
2023-02-08T09:25:17.407Z,50.88
2023-02-08T09:27:44.091Z,49.77
2023-02-08T09:30:11.106Z,49.18
2023-02-08T09:32:39.700Z,48.51
2023-02-08T09:35:07.734Z,48.28
2023-02-08T09:37:34.343Z,47.60
2023-02-08T09:40:01.624Z,46.35
2023-02-08T09:42:46.870Z,46.42
2023-02-08T09:45:31.970Z,46.43
2023-02-08T09:48:27.554Z,45.65
2023-02-08T09:51:08.791Z,44.42
2023-02-08T09:53:40.312Z,43.87
2023-02-08T09:56:12.915Z,44.38
2023-02-08T09:58:51.045Z,43.21
2023-02-08T10:01:27.619Z,43.64
2023-02-08T10:04:07.806Z,43.04
2023-02-08T10:06:34.461Z,42.83
2023-02-08T10:09:05.751Z,42.41
2023-02-08T10:11:43.224Z,42.65
2023-02-08T10:14:47.322Z,39.95
2023-02-08T10:17:23.028Z,39.82
2023-02-08T10:19:52.617Z,40.81
2023-02-08T10:22:50.520Z,39.42
2023-02-08T10:25:37.996Z,37.92
2023-02-08T10:28:48.226Z,38.33
2023-02-08T10:31:24.368Z,35.05
2023-02-08T10:34:20.008Z,36.34
2023-02-08T10:36:47.045Z,35.83
2023-02-08T10:39:21.136Z,35.45
2023-02-08T10:41:47.921Z,35.49
2023-02-08T10:44:32.794Z,34.05
2023-02-08T10:47:09.826Z,34.23
2023-02-08T10:49:52.908Z,32.70
2023-02-08T10:52:19.786Z,32.74
2023-02-08T10:54:46.405Z,33.77
2023-02-08T10:57:30.620Z,32.93
2023-02-08T11:00:05.180Z,34.14
2023-02-08T11:02:40.039Z,33.14
2023-02-08T11:05:36.965Z,33.03
2023-02-08T11:08:26.059Z,31.83
2023-02-08T11:11:08.939Z,32.83
2023-02-08T11:13:45.665Z,31.38
2023-02-08T11:16:21.978Z,31.63
2023-02-08T11:19:05.348Z,32.58
2023-02-08T11:21:34.756Z,31.73
2023-02-08T11:24:17.500Z,30.20
2023-02-08T11:26:44.127Z,30.34
2023-02-08T11:29:19.490Z,30.13
2023-02-08T11:32:00.180Z,29.46
2023-02-08T11:34:32.660Z,29.73
2023-02-08T11:37:26.424Z,31.10
2023-02-08T11:39:59.220Z,31.49
2023-02-08T11:42:29.686Z,32.80
2023-02-08T11:44:58.045Z,31.98
2023-02-08T11:47:27.141Z,32.03
2023-02-08T11:49:56.573Z,31.40
2023-02-08T11:52:26.766Z,32.44
2023-02-08T11:54:55.489Z,30.38
2023-02-08T11:57:24.717Z,31.31
2023-02-08T12:00:10.019Z,31.27
2023-02-08T12:02:39.693Z,32.26
2023-02-08T12:05:13.933Z,30.39
2023-02-08T12:08:22.630Z,30.68
2023-02-08T12:11:16.906Z,30.16
2023-02-08T12:14:05.057Z,30.66
2023-02-08T12:16:49.444Z,29.21
2023-02-08T12:19:50.239Z,29.74
2023-02-08T12:22:23.527Z,28.70
2023-02-08T12:25:18.172Z,28.55
2023-02-08T12:28:15.868Z,27.79
2023-02-08T12:30:58.950Z,29.01
2023-02-08T12:42:54.713Z,26.67
2023-02-08T12:46:06.123Z,27.27
2023-02-08T12:49:17.805Z,27.21
2023-02-08T12:52:02.605Z,27.30
2023-02-08T12:54:48.838Z,28.43
2023-02-08T12:57:20.168Z,28.35
2023-02-08T13:00:15.134Z,29.08
2023-02-08T13:03:06.808Z,28.29
2023-02-08T13:05:42.951Z,27.65
2023-02-08T13:08:33.083Z,29.09
2023-02-08T13:11:39.481Z,27.42
2023-02-08T13:14:23.147Z,28.66
2023-02-08T13:26:08.562Z,29.29
2023-02-08T13:28:47.975Z,29.92
2023-02-08T13:31:20.703Z,29.75
2023-02-08T13:38:06.160Z,29.07
2023-02-08T13:40:36.237Z,29.71
2023-02-08T13:43:34.794Z,29.43
2023-02-08T13:46:04.240Z,30.88
2023-02-08T13:48:46.094Z,30.18
2023-02-08T13:55:59.927Z,29.10
2023-02-08T13:58:58.910Z,28.98
2023-02-08T14:01:34.943Z,29.43
2023-02-08T14:04:17.073Z,28.62
2023-02-08T14:06:51.602Z,28.13
2023-02-08T14:09:29.646Z,29.17
2023-02-08T14:12:04.656Z,29.26
2023-02-08T14:14:39.280Z,28.79
2023-02-08T14:17:20.156Z,30.04
2023-02-08T14:19:57.969Z,30.26
2023-02-08T14:22:29.223Z,30.48
2023-02-08T14:34:39.497Z,29.60
2023-02-08T14:37:28.376Z,28.56
2023-02-08T14:40:16.737Z,28.84
2023-02-08T14:43:04.500Z,29.00
2023-02-08T14:50:26.066Z,28.10
2023-02-08T14:53:11.409Z,28.42
2023-02-08T14:55:45.909Z,29.01
2023-02-08T14:58:18.485Z,29.16
2023-02-08T15:00:45.977Z,28.86
2023-02-08T15:03:16.903Z,28.31
2023-02-08T15:06:06.649Z,28.32
2023-02-08T15:08:33.471Z,28.59
2023-02-08T15:11:00.099Z,29.10
2023-02-08T15:13:26.688Z,29.01
2023-02-08T15:15:55.724Z,28.55
2023-02-08T15:18:29.812Z,28.46
2023-02-08T15:21:04.333Z,28.54
2023-02-08T15:23:31.255Z,28.25
2023-02-08T15:26:06.690Z,28.51
2023-02-08T15:28:36.445Z,28.47
2023-02-08T15:31:14.084Z,28.44
2023-02-08T15:33:44.638Z,28.03
2023-02-08T15:36:17.642Z,28.08
2023-02-08T15:38:45.042Z,28.21
2023-02-08T15:41:25.325Z,28.45
2023-02-08T15:44:16.445Z,28.62
2023-02-08T15:46:44.239Z,29.02
2023-02-08T15:49:30.149Z,29.23
2023-02-08T15:51:57.774Z,29.36
2023-02-08T15:54:25.046Z,29.46
2023-02-08T15:56:56.444Z,29.46
2023-02-08T15:59:27.751Z,29.40
2023-02-08T16:01:56.584Z,30.16
2023-02-08T16:04:24.856Z,30.71
2023-02-08T16:06:56.805Z,30.44
2023-02-08T16:09:27.346Z,30.79
2023-02-08T16:11:57.969Z,31.46
2023-02-08T16:14:28.991Z,32.25
2023-02-08T16:16:58.435Z,31.51
2023-02-08T16:24:18.982Z,32.81
2023-02-08T16:26:54.969Z,33.33
2023-02-08T16:29:30.996Z,34.01
2023-02-08T16:32:07.126Z,34.27
2023-02-08T16:34:38.296Z,35.01
2023-02-08T16:37:17.664Z,34.05
2023-02-08T16:40:02.283Z,34.26
2023-02-08T16:42:39.780Z,34.71
2023-02-08T16:45:14.428Z,34.48
2023-02-08T16:47:42.563Z,34.09
2023-02-08T16:50:12.602Z,33.93
2023-02-08T16:52:39.677Z,34.40
2023-02-08T16:55:07.469Z,34.40
2023-02-08T16:57:42.171Z,34.08
2023-02-08T17:00:23.524Z,34.61
2023-02-08T17:02:51.409Z,34.76
2023-02-08T17:05:19.786Z,34.69
2023-02-08T17:07:47.013Z,34.50
2023-02-08T17:10:21.965Z,33.54
2023-02-08T17:12:48.768Z,33.35
2023-02-08T17:15:15.497Z,33.80
2023-02-08T17:17:42.072Z,34.14
2023-02-08T17:20:24.545Z,34.14
2023-02-08T17:22:52.782Z,33.88
2023-02-08T17:25:20.142Z,34.22
2023-02-08T17:27:50.755Z,35.00
2023-02-08T17:30:21.465Z,35.66
2023-02-08T17:32:49.165Z,35.92
2023-02-08T17:35:19.179Z,36.25
2023-02-08T17:37:47.360Z,36.72
2023-02-08T17:40:14.874Z,37.79
2023-02-08T17:42:41.440Z,37.22
2023-02-08T17:45:08.628Z,36.82
2023-02-08T17:47:38.222Z,36.67
2023-02-08T17:50:05.905Z,36.48
2023-02-08T17:52:32.512Z,36.08
2023-02-08T17:54:58.989Z,35.46
2023-02-08T17:57:25.593Z,34.62
2023-02-08T17:59:52.111Z,34.35
2023-02-08T18:02:18.684Z,33.28
2023-02-08T18:04:45.182Z,33.02
2023-02-08T18:07:12.588Z,32.77
2023-02-08T18:09:39.348Z,32.26
2023-02-08T18:12:06.475Z,32.09
2023-02-08T18:14:33.004Z,32.35
2023-02-08T18:16:59.730Z,31.52
2023-02-08T18:19:26.274Z,31.12
2023-02-08T18:21:52.842Z,30.97
2023-02-08T18:24:19.302Z,30.93
2023-02-08T18:26:46.244Z,31.03
2023-02-08T18:29:12.742Z,30.62
2023-02-08T18:31:39.447Z,30.77
2023-02-08T18:34:06.067Z,30.67
2023-02-08T18:36:32.661Z,30.30
2023-02-08T18:38:59.434Z,30.36
2023-02-08T18:41:28.194Z,30.61
2023-02-08T18:43:57.071Z,30.40
2023-02-08T18:46:26.088Z,30.12
2023-02-08T18:48:53.953Z,29.91
2023-02-08T18:51:22.937Z,30.51
2023-02-08T18:53:54.661Z,30.65
2023-02-08T18:56:24.006Z,30.63
2023-02-08T18:58:52.182Z,30.58
2023-02-08T19:01:21.546Z,30.91
2023-02-08T19:03:49.609Z,30.28
2023-02-08T19:06:22.174Z,29.75
2023-02-08T19:08:51.459Z,29.84
2023-02-08T19:11:24.840Z,30.21
2023-02-08T19:13:52.627Z,30.19
2023-02-08T19:16:22.010Z,30.58
2023-02-08T19:18:48.942Z,31.19
2023-02-08T19:21:17.449Z,31.33
2023-02-08T19:23:48.335Z,31.84
2023-02-08T19:26:19.315Z,32.15
2023-02-08T19:28:46.209Z,32.88
2023-02-08T19:31:15.654Z,33.87
2023-02-08T19:33:44.905Z,33.11
2023-02-08T19:36:20.425Z,33.96
2023-02-08T19:38:47.955Z,33.63
2023-02-08T19:41:18.819Z,35.63
2023-02-08T19:43:46.344Z,35.68
2023-02-08T19:46:15.579Z,35.22
2023-02-08T19:48:43.214Z,35.04
2023-02-08T19:51:09.966Z,35.85
2023-02-08T19:53:36.846Z,35.08
2023-02-08T19:56:08.766Z,33.65
2023-02-08T19:58:36.287Z,33.51
2023-02-08T20:01:35.462Z,34.06
2023-02-08T20:04:03.493Z,33.61
2023-02-08T20:06:33.505Z,32.90
2023-02-08T20:09:04.524Z,32.24
2023-02-08T20:11:34.162Z,31.54
2023-02-08T20:14:01.490Z,31.87
2023-02-08T20:16:31.707Z,31.43
2023-02-08T20:18:58.533Z,31.09
2023-02-08T20:21:25.036Z,31.71
2023-02-08T20:23:52.156Z,31.08
2023-02-08T20:26:26.797Z,30.94
2023-02-08T20:28:58.721Z,30.24
2023-02-08T20:31:32.068Z,31.24
2023-02-08T20:34:03.207Z,33.26
2023-02-08T20:36:40.536Z,33.06
2023-02-08T20:39:10.951Z,32.98
2023-02-08T20:41:38.284Z,32.60
2023-02-08T20:44:05.179Z,32.43
2023-02-08T20:46:34.654Z,32.11
2023-02-08T20:49:03.170Z,32.15
2023-02-08T20:51:30.357Z,32.91
2023-02-08T20:53:58.593Z,33.17
2023-02-08T20:56:27.557Z,33.37
2023-02-08T20:58:55.145Z,33.70
2023-02-08T21:01:27.150Z,33.57
2023-02-08T21:03:55.390Z,34.52
2023-02-08T21:06:29.395Z,34.85
2023-02-08T21:09:02.245Z,35.43
2023-02-08T21:11:30.857Z,35.59
2023-02-08T21:13:57.890Z,36.08
2023-02-08T21:16:25.170Z,36.02
2023-02-08T21:18:52.292Z,36.68
2023-02-08T21:21:19.431Z,36.19
2023-02-08T21:23:46.533Z,35.88
2023-02-08T21:26:16.569Z,35.98
2023-02-08T21:28:43.694Z,36.93
2023-02-08T21:31:14.444Z,36.33
2023-02-08T21:33:42.701Z,37.37
2023-02-08T21:36:14.169Z,37.73
2023-02-08T21:38:41.656Z,38.74
2023-02-08T21:41:15.524Z,37.47
2023-02-08T21:43:42.544Z,39.45
2023-02-08T21:46:10.077Z,40.09
2023-02-08T21:49:06.259Z,41.30
2023-02-08T21:51:51.164Z,40.81
2023-02-08T21:54:40.441Z,40.78
2023-02-08T21:57:28.466Z,38.64
2023-02-08T21:59:59.616Z,39.80
2023-02-08T22:02:29.096Z,39.86
2023-02-08T22:04:58.438Z,40.02
2023-02-08T22:07:26.811Z,40.33
2023-02-08T22:09:53.940Z,41.64
2023-02-08T22:12:23.124Z,42.35
2023-02-08T22:14:50.056Z,42.98
2023-02-08T22:17:16.810Z,42.15
2023-02-08T22:19:43.488Z,42.76
2023-02-08T22:22:11.051Z,43.22
2023-02-08T22:24:37.772Z,42.61
2023-02-08T22:27:04.826Z,41.47
2023-02-08T22:29:31.652Z,40.37
2023-02-08T22:31:58.315Z,40.53
2023-02-08T22:34:26.881Z,40.56
2023-02-08T22:36:53.529Z,41.46
2023-02-08T22:39:20.604Z,41.56
2023-02-08T22:41:47.119Z,41.80
2023-02-08T22:44:13.696Z,43.49
2023-02-08T22:46:40.270Z,41.55
2023-02-08T22:49:08.601Z,40.23
2023-02-08T22:51:35.392Z,39.37
2023-02-08T22:54:01.967Z,38.23
2023-02-08T22:56:28.517Z,37.91
2023-02-08T22:58:55.080Z,37.43
2023-02-08T23:01:21.675Z,35.91
2023-02-08T23:03:48.217Z,36.93
2023-02-08T23:06:16.675Z,37.34
2023-02-08T23:08:43.549Z,38.07
2023-02-08T23:11:12.365Z,38.27
2023-02-08T23:13:39.098Z,37.92
2023-02-08T23:16:05.882Z,37.32
2023-02-08T23:18:32.506Z,37.68
2023-02-08T23:21:05.277Z,37.77
2023-02-08T23:23:31.795Z,36.71
2023-02-08T23:25:58.304Z,36.77
2023-02-08T23:28:25.015Z,37.43
2023-02-08T23:30:51.624Z,37.83
2023-02-08T23:33:18.215Z,38.53
2023-02-08T23:35:44.711Z,38.52
2023-02-08T23:38:11.249Z,37.52
2023-02-08T23:40:40.967Z,36.09
2023-02-08T23:43:08.111Z,36.79
2023-02-08T23:45:34.615Z,36.68
2023-02-08T23:48:01.164Z,36.87
2023-02-08T23:50:27.723Z,35.91
2023-02-08T23:52:56.396Z,35.59
2023-02-08T23:55:23.428Z,35.20
2023-02-08T23:57:50.337Z,35.13
